createdAt,value
2018-10-11T00:02:23.849Z,78.20
2018-10-11T00:04:52.883Z,78.30
2018-10-11T00:07:21.770Z,78.80
2018-10-11T00:09:50.736Z,78.00
2018-10-11T00:12:20.843Z,79.10
2018-10-11T00:14:49.868Z,78.80
2018-10-11T00:19:47.133Z,78.50
2018-10-11T00:22:17.098Z,78.40
2018-10-11T00:24:46.540Z,79.10
2018-10-11T00:27:15.785Z,79.00
2018-10-11T00:29:44.856Z,78.70
2018-10-11T00:32:14.158Z,78.60
2018-10-11T00:34:45.327Z,79.40
2018-10-11T00:37:14.448Z,79.20
2018-10-11T00:39:43.455Z,79.60
2018-10-11T00:42:12.546Z,79.80
2018-10-11T00:44:41.946Z,79.00
2018-10-11T00:47:11.197Z,78.60
2018-10-11T00:49:40.411Z,78.40
2018-10-11T00:52:09.457Z,79.10
2018-10-11T00:54:38.498Z,79.20
2018-10-11T00:57:08.253Z,78.90
2018-10-11T00:59:37.399Z,79.80
2018-10-11T01:02:06.529Z,79.30
2018-10-11T01:04:35.612Z,79.10
2018-10-11T01:07:10.568Z,78.50
2018-10-11T01:09:39.304Z,79.20
2018-10-11T01:12:08.599Z,78.80
2018-10-11T01:14:37.753Z,78.50
2018-10-11T01:17:06.996Z,78.80
2018-10-11T01:19:36.048Z,79.40
2018-10-11T01:22:05.112Z,80.40
2018-10-11T01:24:34.191Z,79.20
2018-10-11T01:27:03.164Z,79.50
2018-10-11T01:29:32.569Z,79.30
2018-10-11T01:32:01.582Z,79.40
2018-10-11T01:34:30.563Z,79.70
2018-10-11T01:36:59.679Z,79.20
2018-10-11T01:39:29.024Z,79.70
2018-10-11T01:42:04.310Z,80.00
2018-10-11T01:44:33.218Z,80.10
2018-10-11T01:47:02.319Z,79.50
2018-10-11T01:49:31.925Z,80.70
2018-10-11T01:52:01.247Z,80.40
2018-10-11T01:54:30.393Z,80.40
2018-10-11T01:56:59.468Z,80.20
2018-10-11T01:59:28.656Z,80.00
2018-10-11T02:01:58.014Z,79.70
2018-10-11T02:04:28.487Z,80.60
2018-10-11T02:06:57.760Z,81.20
2018-10-11T02:09:26.970Z,80.50
2018-10-11T02:11:56.101Z,80.80
2018-10-11T02:14:25.315Z,80.80
2018-10-11T02:16:54.558Z,81.50
2018-10-11T02:19:24.092Z,80.90
2018-10-11T02:21:53.595Z,80.60
2018-10-11T02:24:22.682Z,81.20
2018-10-11T02:26:51.909Z,81.70
2018-10-11T02:29:21.205Z,81.40
2018-10-11T02:31:50.418Z,80.90
2018-10-11T02:34:19.474Z,80.60
2018-10-11T02:36:49.371Z,80.90
2018-10-11T02:39:18.586Z,80.90
2018-10-11T02:41:47.563Z,80.30
2018-10-11T02:44:16.449Z,81.20
2018-10-11T02:46:45.509Z,81.50
2018-10-11T02:49:14.545Z,80.90
2018-10-11T02:51:43.541Z,80.60
2018-10-11T02:54:12.632Z,81.20
2018-10-11T02:56:41.758Z,81.20
2018-10-11T02:59:22.379Z,80.90
2018-10-11T03:01:51.514Z,82.00
2018-10-11T03:04:20.721Z,80.90
2018-10-11T03:06:49.733Z,81.10
2018-10-11T03:09:19.169Z,81.40
2018-10-11T03:11:48.317Z,82.00
2018-10-11T03:14:17.694Z,81.50
2018-10-11T03:16:46.591Z,81.60
2018-10-11T03:19:15.581Z,80.80
2018-10-11T03:21:44.556Z,82.80
2018-10-11T03:24:13.749Z,81.10
2018-10-11T03:26:42.721Z,80.90
2018-10-11T03:29:11.831Z,80.90
2018-10-11T03:31:40.825Z,80.70
2018-10-11T03:34:09.849Z,81.40
2018-10-11T03:36:39.187Z,81.50
2018-10-11T03:39:08.472Z,82.70
2018-10-11T03:41:37.414Z,82.00
2018-10-11T03:44:06.608Z,81.70
2018-10-11T03:46:35.641Z,82.90
2018-10-11T03:49:04.788Z,81.40
2018-10-11T03:51:34.055Z,81.60
2018-10-11T03:54:06.484Z,81.40
2018-10-11T03:56:35.511Z,82.00
2018-10-11T03:59:04.705Z,82.20
2018-10-11T04:01:33.762Z,82.10
2018-10-11T04:04:02.826Z,81.80
2018-10-11T04:06:31.870Z,81.50
2018-10-11T04:09:00.863Z,81.90
2018-10-11T04:11:29.880Z,82.10
2018-10-11T04:13:58.979Z,81.80
2018-10-11T04:16:28.190Z,82.20
2018-10-11T04:18:57.145Z,81.60
2018-10-11T04:21:26.374Z,82.40
2018-10-11T04:23:55.672Z,82.10
2018-10-11T04:26:24.933Z,81.80
2018-10-11T04:28:54.225Z,82.10
2018-10-11T04:31:26.831Z,82.00
2018-10-11T04:33:55.927Z,82.50
2018-10-11T04:36:25.298Z,81.90
2018-10-11T04:38:54.491Z,82.60
2018-10-11T04:41:23.648Z,82.40
2018-10-11T04:43:52.966Z,82.10
2018-10-11T04:46:22.120Z,82.30
2018-10-11T04:48:51.326Z,82.10
2018-10-11T04:51:20.499Z,81.70
2018-10-11T04:53:56.174Z,81.80
2018-10-11T04:56:27.341Z,81.80
2018-10-11T04:58:56.910Z,82.50
2018-10-11T05:01:28.675Z,82.80
2018-10-11T05:03:57.725Z,82.80
2018-10-11T05:08:56.449Z,83.50
2018-10-11T05:11:25.549Z,83.70
2018-10-11T05:13:55.322Z,83.00
2018-10-11T05:16:24.104Z,82.80
2018-10-11T05:19:20.265Z,82.70
2018-10-11T05:21:52.754Z,82.40
2018-10-11T05:24:21.674Z,82.80
2018-10-11T05:26:50.636Z,83.00
2018-10-11T05:29:19.672Z,83.50
2018-10-11T05:31:48.610Z,83.00
2018-10-11T05:34:17.722Z,84.00
2018-10-11T05:36:48.973Z,83.40
2018-10-11T05:39:18.269Z,83.10
2018-10-11T05:44:15.513Z,83.30
2018-10-11T05:46:44.480Z,83.10
2018-10-11T05:49:13.882Z,83.10
2018-10-11T05:51:43.151Z,82.90
2018-10-11T05:54:12.364Z,82.90
2018-10-11T05:56:43.439Z,83.40
2018-10-11T05:59:12.487Z,82.60
2018-10-11T06:01:41.818Z,82.80
2018-10-11T06:04:12.100Z,82.60
2018-10-11T06:06:41.316Z,82.70
2018-10-11T06:09:11.545Z,83.10
2018-10-11T06:11:40.627Z,83.70
2018-10-11T06:14:09.751Z,83.10
2018-10-11T06:16:38.730Z,83.50
2018-10-11T06:19:08.217Z,82.70
2018-10-11T06:21:37.441Z,82.80
2018-10-11T06:24:06.562Z,83.50
2018-10-11T06:26:35.643Z,83.70
2018-10-11T06:29:04.895Z,83.10
2018-10-11T06:31:34.056Z,83.90
2018-10-11T06:34:03.339Z,83.60
2018-10-11T06:36:33.342Z,83.50
2018-10-11T06:39:02.886Z,83.60
2018-10-11T06:41:32.061Z,83.70
2018-10-11T06:44:01.358Z,83.20
2018-10-11T06:46:30.668Z,83.80
2018-10-11T06:49:05.294Z,83.20
2018-10-11T06:51:34.703Z,84.10
2018-10-11T06:54:03.978Z,83.50
2018-10-11T06:56:33.601Z,83.90
2018-10-11T06:59:02.703Z,83.40
2018-10-11T07:01:31.806Z,84.50
2018-10-11T07:04:00.634Z,84.60
2018-10-11T07:06:29.920Z,84.90
2018-10-11T07:08:58.979Z,84.80
2018-10-11T07:11:28.006Z,84.60
2018-10-11T07:14:01.561Z,84.70
2018-10-11T07:16:30.689Z,83.30
2018-10-11T07:18:59.699Z,82.40
2018-10-11T07:21:31.012Z,83.00
2018-10-11T07:24:00.311Z,84.30
2018-10-11T07:26:29.829Z,85.30
2018-10-11T07:28:58.855Z,83.70
2018-10-11T07:31:28.175Z,84.30
2018-10-11T07:33:57.182Z,83.30
2018-10-11T07:36:26.384Z,85.30
2018-10-11T07:38:55.482Z,83.40
2018-10-11T07:43:52.875Z,82.70
2018-10-11T07:46:21.858Z,82.20
2018-10-11T07:48:50.954Z,82.00
2018-10-11T07:51:20.532Z,83.50
2018-10-11T07:53:49.573Z,83.20
2018-10-11T07:56:18.638Z,83.20
2018-10-11T07:58:47.778Z,84.00
2018-10-11T08:01:16.616Z,82.20
2018-10-11T08:03:45.756Z,83.90
2018-10-11T08:06:14.849Z,82.60
2018-10-11T08:08:43.795Z,81.60
2018-10-11T08:11:12.819Z,83.40
2018-10-11T08:13:54.036Z,81.20
2018-10-11T08:16:23.545Z,82.80
2018-10-11T08:18:52.889Z,83.50
2018-10-11T08:21:21.721Z,83.80
2018-10-11T08:23:50.626Z,81.00
2018-10-11T08:26:23.634Z,80.70
2018-10-11T08:28:52.552Z,79.10
2018-10-11T08:31:21.864Z,78.60
2018-10-11T08:33:50.887Z,82.30
2018-10-11T08:36:19.671Z,81.40
2018-10-11T08:38:48.905Z,82.90
2018-10-11T08:41:18.438Z,83.40
2018-10-11T08:43:47.390Z,82.40
2018-10-11T08:46:17.002Z,82.80
2018-10-11T08:48:46.174Z,82.10
2018-10-11T08:51:15.205Z,80.70
2018-10-11T08:53:44.533Z,77.00
2018-10-11T08:56:14.119Z,77.90
2018-10-11T08:58:43.364Z,77.60
2018-10-11T09:01:12.553Z,79.20
2018-10-11T09:03:41.731Z,77.50
2018-10-11T09:06:10.852Z,80.30
2018-10-11T09:08:39.841Z,79.00
2018-10-11T09:11:08.310Z,74.80
2018-10-11T09:13:37.318Z,76.10
2018-10-11T09:16:06.332Z,75.90
2018-10-11T09:18:35.190Z,76.70
2018-10-11T09:21:04.357Z,76.10
2018-10-11T09:23:33.668Z,75.40
2018-10-11T09:26:08.919Z,75.70
2018-10-11T09:28:37.977Z,76.20
2018-10-11T09:31:07.247Z,73.20
2018-10-11T09:33:36.413Z,74.60
2018-10-11T09:36:05.437Z,73.10
2018-10-11T09:38:34.466Z,72.90
2018-10-11T09:41:03.976Z,72.10
2018-10-11T09:43:33.185Z,71.20
2018-10-11T09:46:02.085Z,70.80
2018-10-11T09:48:31.420Z,70.70
2018-10-11T09:51:00.699Z,71.00
2018-10-11T09:53:30.131Z,70.30
2018-10-11T09:55:59.544Z,70.60
2018-10-11T09:58:28.403Z,68.80
2018-10-11T10:01:03.497Z,70.50
2018-10-11T10:03:32.354Z,69.00
2018-10-11T10:06:01.275Z,69.10
2018-10-11T10:08:30.125Z,68.60
2018-10-11T10:10:59.065Z,69.10
2018-10-11T10:13:28.114Z,68.50
2018-10-11T10:15:57.184Z,68.50
2018-10-11T10:18:26.523Z,67.90
2018-10-11T10:20:55.517Z,68.00
2018-10-11T10:23:24.685Z,67.80
2018-10-11T10:25:53.597Z,67.30
2018-10-11T10:28:22.576Z,67.10
2018-10-11T10:30:53.608Z,67.40
2018-10-11T10:33:23.812Z,67.10
2018-10-11T10:35:52.996Z,67.40
2018-10-11T10:38:22.916Z,66.80
2018-10-11T10:40:52.217Z,65.20
2018-10-11T10:43:24.969Z,65.60
2018-10-11T10:45:53.868Z,65.20
2018-10-11T10:48:22.916Z,64.60
2018-10-11T10:50:52.845Z,65.20
2018-10-11T10:53:21.974Z,65.10
2018-10-11T10:55:50.950Z,65.50
2018-10-11T10:58:20.159Z,64.80
2018-10-11T11:00:49.238Z,64.50
2018-10-11T11:03:18.391Z,64.60
2018-10-11T11:05:47.667Z,64.50
2018-10-11T11:08:16.791Z,63.80
2018-10-11T11:10:45.836Z,62.90
2018-10-11T11:13:14.995Z,63.60
2018-10-11T11:15:43.897Z,63.40
2018-10-11T11:18:13.062Z,63.40
2018-10-11T11:20:42.175Z,63.50
2018-10-11T11:23:11.429Z,62.40
2018-10-11T11:25:40.573Z,62.30
2018-10-11T11:28:15.284Z,62.70
2018-10-11T11:30:44.729Z,62.00
2018-10-11T11:33:14.086Z,62.20
2018-10-11T11:35:43.398Z,61.90
2018-10-11T11:38:12.547Z,61.90
2018-10-11T11:40:41.730Z,61.30
2018-10-11T11:43:13.039Z,61.30
2018-10-11T11:45:42.224Z,60.50
2018-10-11T11:48:11.718Z,60.10
2018-10-11T11:50:41.053Z,59.50
2018-10-11T11:53:10.234Z,60.20
2018-10-11T11:55:39.821Z,59.20
2018-10-11T11:58:09.000Z,58.30
2018-10-11T12:00:38.013Z,59.00
2018-10-11T12:03:07.290Z,59.10
2018-10-11T12:05:36.422Z,58.50
2018-10-11T12:08:06.663Z,59.10
2018-10-11T12:10:36.181Z,59.10
2018-10-11T12:13:06.619Z,57.70
2018-10-11T12:15:36.359Z,56.50
2018-10-11T12:18:06.438Z,57.50
2018-10-11T12:20:37.008Z,58.20
2018-10-11T12:23:07.480Z,57.70
2018-10-11T12:25:36.727Z,57.30
2018-10-11T12:28:05.868Z,57.20
2018-10-11T12:30:34.920Z,57.10
2018-10-11T12:33:04.041Z,56.60
2018-10-11T12:35:33.594Z,57.00
2018-10-11T12:38:02.822Z,57.20
2018-10-11T12:40:31.949Z,56.70
2018-10-11T12:43:01.135Z,56.00
2018-10-11T12:45:30.345Z,56.30
2018-10-11T12:47:59.666Z,55.70
2018-10-11T12:50:30.381Z,54.90
2018-10-11T12:52:59.609Z,55.60
2018-10-11T12:55:28.974Z,56.00
2018-10-11T12:57:58.559Z,55.00
2018-10-11T13:00:27.797Z,55.50
2018-10-11T13:02:57.206Z,54.40
2018-10-11T13:05:26.470Z,54.90
2018-10-11T13:07:56.875Z,55.20
2018-10-11T13:10:25.912Z,54.50
2018-10-11T13:12:57.776Z,54.50
2018-10-11T13:15:24.336Z,54.80
2018-10-11T13:17:53.482Z,54.30
2018-10-11T13:20:27.159Z,54.40
2018-10-11T13:22:56.521Z,54.00
2018-10-11T13:25:27.309Z,53.80
2018-10-11T13:27:56.583Z,53.80
2018-10-11T13:30:25.822Z,53.90
2018-10-11T13:32:55.124Z,53.70
2018-10-11T13:35:24.323Z,53.40
2018-10-11T13:37:53.772Z,53.40
2018-10-11T13:40:22.811Z,53.30
2018-10-11T13:42:51.929Z,53.40
2018-10-11T13:45:21.417Z,53.30
2018-10-11T13:47:50.912Z,53.30
2018-10-11T13:50:20.178Z,53.10
2018-10-11T13:52:56.206Z,52.80
2018-10-11T13:55:26.154Z,52.90
2018-10-11T13:58:01.106Z,52.80
2018-10-11T14:00:30.482Z,52.90
2018-10-11T14:02:59.790Z,52.90
2018-10-11T14:05:29.020Z,52.20
2018-10-11T14:07:58.336Z,52.70
2018-10-11T14:10:27.516Z,52.70
2018-10-11T14:12:57.353Z,52.20
2018-10-11T14:15:26.717Z,52.80
2018-10-11T14:17:56.209Z,52.50
2018-10-11T14:20:24.870Z,52.40
2018-10-11T14:22:54.322Z,52.40
2018-10-11T14:25:24.668Z,51.10
2018-10-11T14:27:53.823Z,51.60
2018-10-11T14:30:23.152Z,51.30
2018-10-11T14:32:52.588Z,51.90
2018-10-11T14:35:21.818Z,52.10
2018-10-11T14:37:51.287Z,50.70
2018-10-11T14:40:20.988Z,51.90
2018-10-11T14:42:50.312Z,52.30
2018-10-11T14:45:19.466Z,51.90
2018-10-11T14:47:49.751Z,51.20
2018-10-11T14:50:18.966Z,51.90
2018-10-11T14:52:49.362Z,51.90
2018-10-11T14:55:18.441Z,52.30
2018-10-11T14:57:48.056Z,51.70
2018-10-11T15:00:17.437Z,51.90
2018-10-11T15:02:46.727Z,51.60
2018-10-11T15:05:16.387Z,52.00
2018-10-11T15:07:45.767Z,51.90
2018-10-11T15:10:14.909Z,52.20
2018-10-11T15:12:44.101Z,52.30
2018-10-11T15:15:13.330Z,52.20
2018-10-11T15:17:42.420Z,52.60
2018-10-11T15:20:11.628Z,52.50
2018-10-11T15:22:43.071Z,52.40
2018-10-11T15:25:12.336Z,53.00
2018-10-11T15:27:41.946Z,52.90
2018-10-11T15:30:11.229Z,52.70
2018-10-11T15:32:40.607Z,53.20
2018-10-11T15:35:09.889Z,53.40
2018-10-11T15:37:38.986Z,53.70
2018-10-11T15:40:08.291Z,53.80
2018-10-11T15:42:37.708Z,54.10
2018-10-11T15:45:13.239Z,54.30
2018-10-11T15:47:42.414Z,54.60
2018-10-11T15:50:11.521Z,54.90
2018-10-11T15:52:40.922Z,54.90
2018-10-11T15:55:11.308Z,55.10
2018-10-11T15:57:40.594Z,55.40
2018-10-11T16:00:09.807Z,55.80
2018-10-11T16:02:40.232Z,56.10
2018-10-11T16:05:09.748Z,56.30
2018-10-11T16:07:38.996Z,56.70
2018-10-11T16:10:10.346Z,56.90
2018-10-11T16:12:39.454Z,57.20
2018-10-11T16:15:08.752Z,57.30
2018-10-11T16:17:40.105Z,57.50
2018-10-11T16:20:09.676Z,57.80
2018-10-11T16:22:40.200Z,58.00
2018-10-11T16:25:09.561Z,58.30
2018-10-11T16:27:40.470Z,58.70
2018-10-11T16:30:10.782Z,59.00
2018-10-11T16:32:40.278Z,59.20
2018-10-11T16:35:10.071Z,59.50
2018-10-11T16:37:39.585Z,59.90
2018-10-11T16:40:09.160Z,60.10
2018-10-11T16:42:38.418Z,60.30
2018-10-11T16:45:08.869Z,60.50
2018-10-11T16:47:38.200Z,61.00
2018-10-11T16:50:07.866Z,61.30
2018-10-11T16:52:39.953Z,61.30
2018-10-11T16:55:10.202Z,61.80
2018-10-11T16:57:42.122Z,61.90
2018-10-11T17:00:12.692Z,62.30
2018-10-11T17:02:43.164Z,62.50
2018-10-11T17:05:12.541Z,62.70
2018-10-11T17:07:43.096Z,62.80
2018-10-11T17:10:17.238Z,62.90
2018-10-11T17:12:47.319Z,63.10
2018-10-11T17:15:16.868Z,63.10
2018-10-11T17:17:46.599Z,63.20
2018-10-11T17:20:16.254Z,63.30
2018-10-11T17:22:46.225Z,63.40
2018-10-11T17:25:16.037Z,63.50
2018-10-11T17:27:45.482Z,63.70
2018-10-11T17:30:15.804Z,63.80
2018-10-11T17:32:45.385Z,64.00
2018-10-11T17:35:15.874Z,64.00
2018-10-11T17:37:45.211Z,64.30
2018-10-11T17:40:14.543Z,64.40
2018-10-11T17:42:44.079Z,64.50
2018-10-11T17:45:15.452Z,64.60
2018-10-11T17:47:45.140Z,64.70
2018-10-11T17:50:14.732Z,64.90
2018-10-11T17:52:44.350Z,64.90
2018-10-11T17:55:14.360Z,65.10
2018-10-11T17:57:45.248Z,65.10
2018-10-11T18:00:14.739Z,65.20
2018-10-11T18:02:44.186Z,65.30
2018-10-11T18:05:13.887Z,65.30
2018-10-11T18:07:43.864Z,65.40
2018-10-11T18:10:13.592Z,65.60
2018-10-11T18:12:43.257Z,65.60
2018-10-11T18:15:12.729Z,65.80
2018-10-11T18:17:42.157Z,65.80
2018-10-11T18:20:11.912Z,65.90
2018-10-11T18:22:41.197Z,65.90
2018-10-11T18:25:10.696Z,66.20
2018-10-11T18:27:39.785Z,66.20
2018-10-11T18:30:11.250Z,66.40
2018-10-11T18:32:42.620Z,66.50
2018-10-11T18:35:12.321Z,66.50
2018-10-11T18:37:41.631Z,66.60
2018-10-11T18:40:11.460Z,66.80
2018-10-11T18:42:42.007Z,66.90
2018-10-11T18:45:11.565Z,67.00
2018-10-11T18:47:41.894Z,67.00
2018-10-11T18:50:11.017Z,67.10
2018-10-11T18:52:40.449Z,67.00
2018-10-11T18:55:12.140Z,67.20
2018-10-11T18:57:42.128Z,67.30
2018-10-11T19:00:15.164Z,67.20
2018-10-11T19:02:45.335Z,67.40
2018-10-11T19:05:14.739Z,67.40
2018-10-11T19:07:44.581Z,67.50
2018-10-11T19:10:15.403Z,67.80
2018-10-11T19:12:47.376Z,67.80
2018-10-11T19:15:18.273Z,68.00
2018-10-11T19:17:49.508Z,67.90
2018-10-11T19:20:24.996Z,68.00
2018-10-11T19:22:55.604Z,68.20
2018-10-11T19:25:31.680Z,68.30
2018-10-11T19:28:05.657Z,68.40
2018-10-11T19:30:35.710Z,68.50
2018-10-11T19:33:05.226Z,68.50
2018-10-11T19:35:34.861Z,68.50
2018-10-11T19:38:05.559Z,68.60
2018-10-11T19:41:05.546Z,68.50
2018-10-11T19:43:40.080Z,68.70
2018-10-11T19:46:15.917Z,68.80
2018-10-11T19:48:49.880Z,69.00
2018-10-11T19:51:22.666Z,69.00
2018-10-11T19:53:57.956Z,69.00
2018-10-11T19:56:31.701Z,69.10
2018-10-11T19:59:08.232Z,69.20
2018-10-11T20:01:42.856Z,69.10
2018-10-11T20:04:16.043Z,69.20
2018-10-11T20:06:51.331Z,69.10
2018-10-11T20:09:21.443Z,69.30
2018-10-11T20:11:54.771Z,69.20
2018-10-11T20:14:24.330Z,69.60
2018-10-11T20:16:55.515Z,69.50
2018-10-11T20:19:26.931Z,69.40
2018-10-11T20:21:56.457Z,69.60
2018-10-11T20:24:25.926Z,69.60
2018-10-11T20:26:55.243Z,69.70
2018-10-11T20:29:31.465Z,69.60
2018-10-11T20:32:00.989Z,69.70
2018-10-11T20:34:32.102Z,69.70
2018-10-11T20:37:02.621Z,69.70
2018-10-11T20:39:32.025Z,69.60
2018-10-11T20:42:01.359Z,69.70
2018-10-11T20:44:31.621Z,69.90
2018-10-11T20:47:00.955Z,69.80
2018-10-11T20:49:33.067Z,70.00
2018-10-11T20:52:02.827Z,69.90
2018-10-11T20:54:32.868Z,70.10
2018-10-11T20:57:02.783Z,70.10
2018-10-11T20:59:34.401Z,70.20
2018-10-11T21:02:04.633Z,70.10
2018-10-11T21:04:35.344Z,70.20
2018-10-11T21:07:04.857Z,70.10
2018-10-11T21:09:35.816Z,70.20
2018-10-11T21:12:06.689Z,70.20
2018-10-11T21:14:36.355Z,70.10
2018-10-11T21:17:08.751Z,70.30
2018-10-11T21:19:39.684Z,70.20
2018-10-11T21:22:10.090Z,70.30
2018-10-11T21:24:41.216Z,70.30
2018-10-11T21:27:10.941Z,70.40
2018-10-11T21:29:40.648Z,70.40
2018-10-11T21:32:10.543Z,70.30
2018-10-11T21:34:43.976Z,70.50
2018-10-11T21:37:13.432Z,70.50
2018-10-11T21:39:42.901Z,70.60
2018-10-11T21:42:12.815Z,70.60
2018-10-11T21:44:43.211Z,70.70
2018-10-11T21:47:12.673Z,70.80
2018-10-11T21:49:41.666Z,70.80
2018-10-11T21:52:11.583Z,70.90
2018-10-11T21:54:42.910Z,70.90
2018-10-11T21:57:13.379Z,71.00
2018-10-11T21:59:50.258Z,70.90
2018-10-11T22:02:19.439Z,71.10
2018-10-11T22:04:48.822Z,71.00
2018-10-11T22:07:18.008Z,71.10
2018-10-11T22:09:47.413Z,71.20
2018-10-11T22:12:22.008Z,71.20
2018-10-11T22:14:54.056Z,71.20
2018-10-11T22:17:26.916Z,71.10
2018-10-11T22:19:59.722Z,71.30
2018-10-11T22:22:30.244Z,71.30
2018-10-11T22:25:04.395Z,71.40
2018-10-11T22:27:39.342Z,71.70
2018-10-11T22:30:08.690Z,71.60
2018-10-11T22:32:38.217Z,71.50
2018-10-11T22:35:07.368Z,71.80
2018-10-11T22:37:36.635Z,71.80
2018-10-11T22:40:05.936Z,71.80
2018-10-11T22:42:35.011Z,72.10
2018-10-11T22:45:04.545Z,71.90
2018-10-11T22:47:33.975Z,72.20
2018-10-11T22:50:03.194Z,72.10
2018-10-11T22:52:33.536Z,72.20
2018-10-11T22:55:03.466Z,72.20
2018-10-11T22:57:32.669Z,72.20
2018-10-11T23:00:01.771Z,72.10
2018-10-11T23:02:30.832Z,72.10
2018-10-11T23:05:00.120Z,72.20
2018-10-11T23:07:29.256Z,72.30
2018-10-11T23:09:58.590Z,72.30
2018-10-11T23:12:27.470Z,72.40
2018-10-11T23:14:56.821Z,72.40
2018-10-11T23:17:25.897Z,72.40
2018-10-11T23:19:55.495Z,72.60
2018-10-11T23:22:24.977Z,72.70
2018-10-11T23:24:57.694Z,72.70
2018-10-11T23:27:27.030Z,72.60
2018-10-11T23:29:59.987Z,72.70
2018-10-11T23:32:29.274Z,72.70
2018-10-11T23:34:58.831Z,72.70
2018-10-11T23:37:28.553Z,72.70
2018-10-11T23:39:57.995Z,72.70
2018-10-11T23:42:27.748Z,72.80
2018-10-11T23:44:57.179Z,73.00
2018-10-11T23:47:26.271Z,73.00
2018-10-11T23:49:55.681Z,73.10
2018-10-11T23:52:25.105Z,73.00
2018-10-11T23:54:54.487Z,73.20
2018-10-11T23:57:23.771Z,73.30
2018-10-11T23:59:52.917Z,73.30
